Midway, AL (36053)

11:08 AM CST on February 14, 2016 (GMT -0600)
APRSWXNET | | Change Station
CLOSE
Current Station
Personal Weather Station
Location: Fitzpatrick, AL
Elevation: 337 ft
Nearby Weather Stations

Elev 337 ft 32.10 °N, 85.83 °W | Updated 28 minutes ago

Clear
Clear
48 °F
Feels Like 48 °F
N
1
Wind Variable Wind from SW
Gusts 4.0 mph

Today
High -- | Low -- °F
--% Chance of Precip.
Yesterday
High -- | Low -- °F
Precip. -- in
Pressure 30.32 in
Visibility 10.0 miles
Clouds Clear
Windchill 48 °F
Dew Point 20 °F
Humidity 33%
Rainfall in
Snow Depth Not available.
6:25 AM 5:27 PM
Waxing Crescent, 43% visible
METAR KEUF 141658Z AUTO 00000KT 10SM CLR 11/M09 A3031 RMK AO2 SLP266 I1000 T01111094
Pressure 30.32 in
Visibility 10.0 miles
Clouds Clear
Windchill 48 °F
Dew Point 20 °F
Humidity 33%
Rainfall in
Snow Depth Not available.
6:25 AM 5:27 PM
Waxing Crescent, 43% visible
METAR KEUF 141658Z AUTO 00000KT 10SM CLR 11/M09 A3031 RMK AO2 SLP266 I1000 T01111094

10-Day Weather Forecast

Almanac

Astronomy

Feb. 14, 2016 Rise Set
Actual Time
Civil Twilight
Nautical Twilight
Astronomical Twilight
Moon
Length of Visible Light
Length of Day
Tomorrow will be .
, % of the Moon is Illuminated

Today's Extremes

State Highs State Lows

Community

WunderPhotos

Upload Photos

1,892,849 photos uploaded!

WunderBlog® & News

Nearby

Air Quality

  Air Quality AQ Index Pollutant
Not available.

Snow Depth

Station Depth Elevation

Earthquake Activity

City Distance Mag. Time & Date
Minimum magnitude displayed is 2.5.

Coastal Water Temperatures

Place Temperature

Stations

Nearby Weather Stations

Station Location Temp. Windchill Dew Point Humidity Wind Precip. Elev Updated Type
                   

Watches & Warnings

There are currently no watches in effect.